Time;durP1;ratioP1;P1;durP2;ratioP2;P2;SDS_P1;SDS_P2;PMS_P1;PMS_P2;Temp;Humidity;BMP_temperature;BMP_pressure;BME280_temperature;BME280_humidity;BME280_pressure;Samples;Min_cycle;Max_cycle;Signal;HPM_P1;HPM_P2
2021/01/24 00:00:23;;;;;;;14.60;12.80;;;;;21.70;98030.00;;;;2087931;28;20739;-67
2021/01/24 00:01:23;;;;;;;14.80;13.30;;;;;21.70;98025.00;;;;2088067;28;20614;-66
2021/01/24 00:02:23;;;;;;;16.20;13.90;;;;;21.70;98027.00;;;;2087906;28;20225;-66
2021/01/24 00:03:24;;;;;;;14.33;12.87;;;;;21.70;98030.00;;;;2087813;28;20224;-66
2021/01/24 00:04:25;;;;;;;14.50;13.00;;;;;21.70;98026.00;;;;2086964;28;20264;-66
2021/01/24 00:05:25;;;;;;;15.17;13.57;;;;;21.70;98029.00;;;;2088021;28;20243;-66
2021/01/24 00:06:25;;;;;;;14.77;12.80;;;;;21.70;98030.00;;;;2079682;28;20251;-66
2021/01/24 00:07:26;;;;;;;13.67;12.20;;;;;21.70;98026.00;;;;2088201;28;20236;-65
2021/01/24 00:08:27;;;;;;;13.43;11.97;;;;;21.70;98028.00;;;;2087991;28;21047;-66
2021/01/24 00:09:27;;;;;;;14.20;12.37;;;;;21.70;98023.00;;;;2087988;28;20233;-66
2021/01/24 00:10:27;;;;;;;12.70;11.40;;;;;21.70;98030.00;;;;2087966;28;20213;-66
2021/01/24 00:11:28;;;;;;;13.23;11.83;;;;;21.70;98027.00;;;;2088050;28;20220;-66
2021/01/24 00:12:28;;;;;;;13.60;12.20;;;;;21.60;98024.00;;;;2087975;28;20256;-66
2021/01/24 00:13:28;;;;;;;12.90;11.60;;;;;21.60;98028.00;;;;2087569;28;20225;-66
2021/01/24 00:14:29;;;;;;;15.63;12.47;;;;;21.60;98040.00;;;;2078963;28;20250;-66
2021/01/24 00:15:29;;;;;;;12.13;10.83;;;;;21.60;98024.00;;;;2079050;28;20233;-66
2021/01/24 00:16:29;;;;;;;12.30;11.20;;;;;21.60;98033.00;;;;2087793;28;20218;-66
2021/01/24 00:17:30;;;;;;;13.17;11.07;;;;;21.60;98030.00;;;;2087971;28;20244;-66
2021/01/24 00:18:30;;;;;;;11.13;10.03;;;;;21.60;98026.00;;;;2087699;28;20228;-66
2021/01/24 00:19:30;;;;;;;10.70;9.60;;;;;21.60;98029.00;;;;2088001;28;20245;-66
2021/01/24 00:20:31;;;;;;;10.60;9.43;;;;;21.60;98030.00;;;;2087873;28;20271;-66
2021/01/24 00:21:31;;;;;;;10.50;9.50;;;;;21.60;98033.00;;;;2087869;28;20263;-67
2021/01/24 00:22:31;;;;;;;9.53;8.50;;;;;21.60;98034.00;;;;2087811;28;20217;-67
2021/01/24 00:23:32;;;;;;;11.00;9.90;;;;;21.60;98025.00;;;;2087493;28;20237;-67
2021/01/24 00:24:32;;;;;;;10.27;9.27;;;;;21.60;98024.00;;;;2087771;28;20779;-66
2021/01/24 00:25:32;;;;;;;10.70;9.23;;;;;21.60;98033.00;;;;2087684;28;20700;-66
2021/01/24 00:26:33;;;;;;;9.57;8.67;;;;;21.60;98029.00;;;;2087728;28;20699;-66
2021/01/24 00:27:33;;;;;;;9.60;8.60;;;;;21.60;98028.00;;;;2087903;28;20967;-66
2021/01/24 00:28:33;;;;;;;11.33;9.40;;;;;21.60;98032.00;;;;2088065;28;20274;-66
2021/01/24 00:29:34;;;;;;;8.93;8.03;;;;;21.60;98028.00;;;;2087958;28;20225;-66
2021/01/24 00:30:34;;;;;;;9.17;8.03;;;;;21.60;98031.00;;;;2087880;28;20288;-66
2021/01/24 00:31:34;;;;;;;9.90;8.70;;;;;21.50;98031.00;;;;2087855;28;20220;-67
2021/01/24 00:32:35;;;;;;;8.57;7.77;;;;;21.50;98029.00;;;;2087724;28;20217;-66
2021/01/24 00:33:35;;;;;;;8.33;7.47;;;;;21.50;98031.00;;;;2086926;28;20225;-66
2021/01/24 00:34:35;;;;;;;9.87;8.40;;;;;21.50;98038.00;;;;2087585;28;20237;-66
2021/01/24 00:35:36;;;;;;;8.50;7.70;;;;;21.50;98032.00;;;;2087665;28;20687;-66
2021/01/24 00:36:36;;;;;;;9.07;8.00;;;;;21.50;98032.00;;;;2087530;28;20224;-66
2021/01/24 00:37:37;;;;;;;8.13;7.33;;;;;21.50;98018.00;;;;2087900;28;20225;-66
2021/01/24 00:38:38;;;;;;;9.00;7.70;;;;;21.50;98029.00;;;;2087837;28;20240;-66
2021/01/24 00:39:38;;;;;;;9.50;8.23;;;;;21.50;98022.00;;;;2087733;28;20298;-66
2021/01/24 00:40:39;;;;;;;8.53;7.73;;;;;21.50;98017.00;;;;2087713;28;20456;-66
2021/01/24 00:41:39;;;;;;;8.07;7.27;;;;;21.40;98017.00;;;;2087885;28;20221;-66
2021/01/24 00:42:39;;;;;;;8.13;6.90;;;;;21.40;98021.00;;;;2087605;28;20685;-66
2021/01/24 00:43:40;;;;;;;7.77;6.93;;;;;21.50;98017.00;;;;2087234;28;20221;-66
2021/01/24 00:44:40;;;;;;;9.13;7.50;;;;;21.50;98021.00;;;;2087771;28;20237;-66
2021/01/24 00:45:41;;;;;;;7.60;6.63;;;;;21.40;98016.00;;;;2078553;28;20247;-66
2021/01/24 00:46:42;;;;;;;7.67;6.87;;;;;21.40;98025.00;;;;2072749;28;20218;-66
2021/01/24 00:47:42;;;;;;;7.80;6.60;;;;;21.40;98014.00;;;;2081315;28;20468;-66
2021/01/24 00:48:42;;;;;;;6.60;5.93;;;;;21.40;98016.00;;;;2087649;28;20205;-66
2021/01/24 00:49:43;;;;;;;6.87;6.27;;;;;21.40;98013.00;;;;2087665;28;20236;-66
2021/01/24 00:50:43;;;;;;;7.20;6.50;;;;;21.40;98013.00;;;;2086495;28;20232;-66
2021/01/24 00:51:43;;;;;;;7.03;6.30;;;;;21.40;98022.00;;;;2087642;28;20220;-66
2021/01/24 00:52:43;;;;;;;6.47;5.83;;;;;21.40;98016.00;;;;2078589;28;20248;-66
2021/01/24 00:53:44;;;;;;;6.60;6.00;;;;;21.40;98010.00;;;;2077896;28;20222;-66
2021/01/24 00:54:44;;;;;;;7.13;6.27;;;;;21.40;98023.00;;;;2087582;28;20213;-66
2021/01/24 00:55:45;;;;;;;5.93;5.33;;;;;21.40;98014.00;;;;2087210;28;20259;-66
2021/01/24 00:56:45;;;;;;;6.30;5.70;;;;;21.40;98013.00;;;;2087542;28;20584;-66
2021/01/24 00:57:46;;;;;;;5.90;5.37;;;;;21.40;98018.00;;;;2087873;28;20816;-66
2021/01/24 00:58:46;;;;;;;6.23;5.53;;;;;21.40;98017.00;;;;2087670;28;20296;-66
2021/01/24 00:59:46;;;;;;;7.00;5.17;;;;;21.40;98015.00;;;;2087250;28;20213;-66
2021/01/24 01:00:47;;;;;;;5.80;5.30;;;;;21.40;98010.00;;;;2086682;28;20215;-65
2021/01/24 01:01:47;;;;;;;5.00;4.50;;;;;21.40;98015.00;;;;2086949;28;20283;-66
2021/01/24 01:02:47;;;;;;;4.77;4.37;;;;;21.40;98013.00;;;;2086598;28;20224;-66
2021/01/24 01:03:48;;;;;;;5.80;4.90;;;;;21.40;98018.00;;;;2086562;28;20260;-66
2021/01/24 01:04:48;;;;;;;5.90;5.30;;;;;21.40;98025.00;;;;2086773;28;20229;-66
2021/01/24 01:05:48;;;;;;;6.33;4.87;;;;;21.40;98030.00;;;;2087041;28;20216;-66
2021/01/24 01:06:49;;;;;;;5.23;4.73;;;;;21.40;98018.00;;;;2086824;28;20213;-66
2021/01/24 01:07:49;;;;;;;5.53;4.73;;;;;21.40;98028.00;;;;2086832;28;20213;-66
2021/01/24 01:08:50;;;;;;;5.17;4.67;;;;;21.40;98025.00;;;;2086934;28;20224;-66
2021/01/24 01:09:50;;;;;;;5.63;5.07;;;;;21.30;98025.00;;;;2087255;28;20766;-66
2021/01/24 01:10:50;;;;;;;5.77;5.00;;;;;21.30;98024.00;;;;2086895;28;20949;-66
2021/01/24 01:11:51;;;;;;;5.30;4.10;;;;;21.30;98018.00;;;;2086922;28;20707;-66
2021/01/24 01:12:52;;;;;;;4.87;4.47;;;;;21.30;98024.00;;;;2087045;28;20213;-66
2021/01/24 01:13:52;;;;;;;4.33;3.93;;;;;21.30;98027.00;;;;2086800;28;20710;-66
2021/01/24 01:14:52;;;;;;;5.03;4.53;;;;;21.30;98029.00;;;;2086758;28;20470;-66
2021/01/24 01:15:53;;;;;;;4.50;4.10;;;;;21.30;98028.00;;;;2086580;28;20229;-66
2021/01/24 01:16:53;;;;;;;4.60;4.20;;;;;21.30;98028.00;;;;2086437;28;20232;-66
2021/01/24 01:17:53;;;;;;;4.67;4.20;;;;;21.30;98032.00;;;;2086945;28;20248;-66
2021/01/24 01:18:54;;;;;;;5.10;4.47;;;;;21.30;98035.00;;;;2076113;28;20226;-66
2021/01/24 01:19:54;;;;;;;4.50;3.93;;;;;21.30;98037.00;;;;2074671;28;20217;-66
2021/01/24 01:20:55;;;;;;;3.90;3.60;;;;;21.30;98046.00;;;;2087436;28;20224;-66
2021/01/24 01:21:55;;;;;;;4.20;3.60;;;;;21.20;98040.00;;;;2087637;28;20584;-66
2021/01/24 01:22:55;;;;;;;3.83;3.53;;;;;21.20;98042.00;;;;2078518;28;20218;-66
2021/01/24 01:23:56;;;;;;;3.97;3.57;;;;;21.20;98044.00;;;;2078345;28;20217;-66
2021/01/24 01:24:56;;;;;;;4.20;3.77;;;;;21.20;98047.00;;;;2087447;28;20951;-66
2021/01/24 01:25:56;;;;;;;4.93;4.43;;;;;21.30;98042.00;;;;2087548;28;20225;-66
2021/01/24 01:26:57;;;;;;;4.50;4.00;;;;;21.30;98040.00;;;;2087552;28;20416;-66
2021/01/24 01:27:57;;;;;;;3.60;3.30;;;;;21.20;98049.00;;;;2087567;28;20308;-66
2021/01/24 01:28:57;;;;;;;4.50;3.93;;;;;21.20;98050.00;;;;2087488;28;20244;-66
2021/01/24 01:29:58;;;;;;;4.40;3.33;;;;;21.20;98051.00;;;;2086754;28;20226;-66
2021/01/24 01:30:58;;;;;;;3.90;3.50;;;;;21.20;98049.00;;;;2087447;28;20209;-66
2021/01/24 01:31:59;;;;;;;3.70;3.40;;;;;21.20;98045.00;;;;2087478;28;20244;-66
2021/01/24 01:32:59;;;;;;;3.87;3.50;;;;;21.20;98045.00;;;;2087298;28;20225;-66
2021/01/24 01:33:59;;;;;;;3.53;3.23;;;;;21.20;98052.00;;;;2087147;28;20278;-66
2021/01/24 01:35:00;;;;;;;3.43;3.13;;;;;21.20;98050.00;;;;2087382;28;20228;-66
2021/01/24 01:36:00;;;;;;;3.57;3.00;;;;;21.20;98049.00;;;;2087588;28;20220;-66
2021/01/24 01:37:01;;;;;;;3.30;3.00;;;;;21.20;98048.00;;;;2087086;28;20205;-66
2021/01/24 01:38:02;;;;;;;3.00;2.70;;;;;21.20;98044.00;;;;2087467;28;20221;-66
2021/01/24 01:39:02;;;;;;;3.60;3.17;;;;;21.20;98050.00;;;;2087442;28;20682;-66
2021/01/24 01:40:07;;;;;;;3.70;3.40;;;;;21.20;98054.00;;;;2078699;28;20907;-66
2021/01/24 01:41:07;;;;;;;3.55;2.92;;;;;21.20;98046.00;;;;2079069;28;20841;-66
2021/01/24 01:42:12;;;;;;;3.40;3.10;;;;;21.20;98049.00;;;;2087459;28;20228;-66
2021/01/24 01:43:12;;;;;;;3.40;2.80;;;;;21.20;98046.00;;;;2087233;28;20215;-66
2021/01/24 01:44:12;;;;;;;2.70;2.50;;;;;21.20;98059.00;;;;2078085;28;20241;-66
2021/01/24 01:45:13;;;;;;;3.47;3.17;;;;;21.20;98053.00;;;;2078533;28;20212;-66
2021/01/24 01:46:14;;;;;;;3.60;3.30;;;;;21.20;98050.00;;;;2087323;28;20212;-66
2021/01/24 01:47:22;;;;;;;3.08;2.70;;;;;21.20;98053.00;;;;2070444;28;20713;-66
2021/01/24 01:48:22;;;;;;;3.42;2.80;;;;;21.20;98041.00;;;;2063307;28;20349;-66
2021/01/24 01:49:24;;;;;;;3.47;2.57;;;;;21.10;98052.00;;;;2078816;28;20229;-66
2021/01/24 01:50:24;;;;;;;2.80;2.60;;;;;21.10;98057.00;;;;2078603;28;20218;-66
2021/01/24 01:51:25;;;;;;;2.70;2.40;;;;;21.10;98052.00;;;;2078765;28;20214;-66
2021/01/24 01:52:28;;;;;;;2.93;2.67;;;;;21.10;98057.00;;;;2087627;28;20219;-66
2021/01/24 01:53:29;;;;;;;3.95;3.47;;;;;21.10;98055.00;;;;2079455;28;20222;-66
2021/01/24 01:54:29;;;;;;;7.33;3.00;;;;;21.00;98050.00;;;;2070575;28;20730;-66
2021/01/24 01:55:29;;;;;;;16.23;2.70;;;;;21.00;98057.00;;;;2070846;28;20218;-66
2021/01/24 01:56:30;;;;;;;6.80;2.90;;;;;20.90;98059.00;;;;2088987;28;20216;-65
2021/01/24 01:57:30;;;;;;;6.03;3.07;;;;;20.80;98056.00;;;;2088954;28;20231;-66
2021/01/24 01:58:30;;;;;;;5.80;2.30;;;;;20.80;98057.00;;;;2088983;28;21182;-66
2021/01/24 01:59:31;;;;;;;9.57;3.40;;;;;20.90;98048.00;;;;2088962;28;20687;-66
2021/01/24 02:00:31;;;;;;;10.00;3.30;;;;;20.80;98047.00;;;;2089163;28;20686;-66
2021/01/24 02:01:50;;;;;;;8.57;3.40;;;;;20.80;98050.00;;;;2088893;28;20938;-66
2021/01/24 02:02:56;;;;;;;10.35;3.17;;;;;20.80;98042.00;;;;2088430;28;20224;-66
2021/01/24 02:04:23;;;;;;;7.03;3.03;;;;;20.90;98055.00;;;;2088276;28;20207;-67
2021/01/24 02:05:41;;;;;;;8.27;3.30;;;;;20.80;98054.00;;;;2079014;28;20754;-67
2021/01/24 02:06:44;;;;;;;7.40;2.65;;;;;20.90;98044.00;;;;2074064;28;20855;-66
2021/01/24 02:08:06;;;;;;;8.77;3.28;;;;;20.90;98048.00;;;;2071745;28;20214;-67
2021/01/24 02:09:21;;;;;;;3.30;2.30;;;;;20.90;98052.00;;;;2077862;28;20674;-67
2021/01/24 02:10:26;;;;;;;5.05;2.92;;;;;20.80;98051.00;;;;2080006;28;20343;-67
2021/01/24 02:11:38;;;;;;;5.75;2.22;;;;;20.90;98058.00;;;;2072668;28;20217;-67
2021/01/24 02:13:02;;;;;;;3.42;2.50;;;;;20.90;98056.00;;;;2061333;28;20708;-67
2021/01/24 02:14:20;;;;;;;8.32;2.20;;;;;20.90;98062.00;;;;2071948;28;20602;-67
2021/01/24 02:15:20;;;;;;;6.82;2.47;;;;;20.90;98045.00;;;;2088157;28;20683;-68
2021/01/24 02:16:21;;;;;;;4.80;2.57;;;;;20.90;98047.00;;;;2079724;28;20214;-67
2021/01/24 02:17:21;;;;;;;2.83;1.87;;;;;20.90;98048.00;;;;2066346;28;20365;-67
2021/01/24 02:18:22;;;;;;;6.93;2.57;;;;;21.00;98052.00;;;;2063519;28;20210;-67
2021/01/24 02:20:00;;;;;;;4.97;2.27;;;;;21.00;98058.00;;;;2078619;28;20892;-67
2021/01/24 02:21:16;;;;;;;6.72;2.55;;;;;21.00;98065.00;;;;2084131;28;20252;-67
2021/01/24 02:22:16;;;;;;;2.85;2.50;;;;;20.90;98055.00;;;;2078574;28;20257;-67
2021/01/24 02:23:20;;;;;;;3.50;2.43;;;;;21.00;98055.00;;;;2070809;28;20275;-67
2021/01/24 02:24:21;;;;;;;4.07;2.22;;;;;21.00;98060.00;;;;2070632;28;20801;-67
2021/01/24 02:25:35;;;;;;;6.70;2.17;;;;;21.00;98069.00;;;;2070610;28;20210;-67
2021/01/24 02:27:02;;;;;;;6.38;2.30;;;;;21.00;98071.00;;;;2073777;28;20518;-67
2021/01/24 02:28:42;;;;;;;3.35;2.30;;;;;21.00;98060.00;;;;2079483;28;20251;-67
2021/01/24 02:30:04;;;;;;;2.38;2.17;;;;;21.00;98071.00;;;;2040964;28;21101;-67
2021/01/24 02:31:05;;;;;;;3.50;2.40;;;;;21.00;98074.00;;;;2085542;28;20202;-67
2021/01/24 02:32:05;;;;;;;4.23;2.20;;;;;21.00;98064.00;;;;2071443;28;20771;-67
2021/01/24 02:33:08;;;;;;;2.63;2.20;;;;;20.90;98069.00;;;;2069000;28;20659;-67
2021/01/24 02:34:09;;;;;;;2.10;2.00;;;;;21.00;98075.00;;;;2078988;28;20312;-67
2021/01/24 02:35:09;;;;;;;3.43;2.57;;;;;20.90;98076.00;;;;2068534;28;20232;-67
2021/01/24 02:36:10;;;;;;;5.43;2.37;;;;;21.00;98069.00;;;;2079289;28;20763;-67
2021/01/24 02:37:10;;;;;;;2.37;2.17;;;;;21.00;98079.00;;;;2071277;28;20241;-66
2021/01/24 02:38:10;;;;;;;3.57;2.50;;;;;20.90;98074.00;;;;2060201;28;20359;-66
2021/01/24 02:39:11;;;;;;;3.87;2.80;;;;;20.90;98075.00;;;;2063425;28;20226;-66
2021/01/24 02:40:11;;;;;;;3.07;2.13;;;;;21.00;98080.00;;;;2078631;28;20256;-66
2021/01/24 02:41:12;;;;;;;3.97;2.60;;;;;20.90;98072.00;;;;2071426;28;20214;-66
2021/01/24 02:42:12;;;;;;;3.23;2.60;;;;;20.90;98088.00;;;;2063134;28;20262;-67
2021/01/24 02:43:13;;;;;;;4.20;2.00;;;;;21.00;98081.00;;;;2071545;28;20218;-67
2021/01/24 02:44:13;;;;;;;3.77;2.20;;;;;21.00;98082.00;;;;2061786;28;20429;-67
2021/01/24 02:45:13;;;;;;;4.10;2.10;;;;;20.90;98082.00;;;;2071242;28;20709;-66
2021/01/24 02:46:14;;;;;;;3.90;2.20;;;;;20.90;98094.00;;;;2071299;28;20717;-67
2021/01/24 02:47:15;;;;;;;2.50;2.30;;;;;20.90;98086.00;;;;2071337;28;20242;-67
2021/01/24 02:48:16;;;;;;;4.63;2.50;;;;;20.90;98095.00;;;;2063087;28;20224;-67
2021/01/24 02:49:16;;;;;;;2.50;2.10;;;;;21.00;98095.00;;;;2071386;28;20764;-67
2021/01/24 02:50:17;;;;;;;2.70;2.50;;;;;21.00;98084.00;;;;2063255;28;20204;-67
2021/01/24 02:51:17;;;;;;;3.90;2.37;;;;;20.90;98091.00;;;;2071079;28;20214;-67
2021/01/24 02:52:17;;;;;;;3.50;2.40;;;;;20.90;98094.00;;;;2071273;28;20312;-67
2021/01/24 02:53:18;;;;;;;2.30;2.10;;;;;20.90;98097.00;;;;2079482;28;20218;-66
2021/01/24 02:54:18;;;;;;;3.80;2.60;;;;;20.90;98092.00;;;;2070433;28;20264;-66
2021/01/24 02:55:18;;;;;;;2.80;2.50;;;;;20.90;98102.00;;;;2063135;28;20306;-67
2021/01/24 02:56:21;;;;;;;2.50;2.30;;;;;20.90;98094.00;;;;2071077;28;20219;-67
2021/01/24 02:57:21;;;;;;;3.15;2.30;;;;;20.90;98101.00;;;;2079559;28;20240;-66
2021/01/24 02:58:21;;;;;;;4.10;3.00;;;;;20.90;98097.00;;;;2071392;28;20704;-67
2021/01/24 02:59:22;;;;;;;4.10;2.60;;;;;21.00;98101.00;;;;2071431;28;20734;-67
2021/01/24 03:00:23;;;;;;;2.97;2.77;;;;;20.90;98101.00;;;;2079081;28;20700;-67
2021/01/24 03:01:23;;;;;;;3.25;2.50;;;;;20.90;98101.00;;;;2071319;28;20207;-66
2021/01/24 03:02:23;;;;;;;2.93;2.40;;;;;20.90;98097.00;;;;2071115;28;20203;-66
2021/01/24 03:03:24;;;;;;;3.03;2.73;;;;;20.90;98101.00;;;;2079326;28;20214;-66
2021/01/24 03:04:24;;;;;;;2.50;2.30;;;;;20.90;98103.00;;;;2087564;28;20221;-66
2021/01/24 03:05:25;;;;;;;4.43;2.30;;;;;21.00;98104.00;;;;2088344;28;20301;-67
2021/01/24 03:06:25;;;;;;;3.37;2.90;;;;;21.00;98107.00;;;;2088063;28;20262;-66
2021/01/24 03:07:26;;;;;;;3.23;2.43;;;;;20.90;98105.00;;;;2078954;28;20231;-66
2021/01/24 03:08:26;;;;;;;2.97;2.50;;;;;20.90;98107.00;;;;2055533;28;20293;-66
2021/01/24 03:09:27;;;;;;;3.33;2.50;;;;;21.00;98107.00;;;;2063441;28;20286;-66
2021/01/24 03:10:27;;;;;;;2.83;2.50;;;;;20.90;98119.00;;;;2079757;28;20229;-66
2021/01/24 03:11:27;;;;;;;3.47;2.17;;;;;20.90;98113.00;;;;2088419;28;20221;-66
2021/01/24 03:12:30;;;;;;;4.30;2.53;;;;;20.90;98116.00;;;;2079541;28;20708;-66
2021/01/24 03:13:40;;;;;;;4.50;3.30;;;;;20.90;98116.00;;;;2071369;28;20226;-66
2021/01/24 03:14:40;;;;;;;3.17;2.90;;;;;20.90;98106.00;;;;2071528;28;20229;-66
2021/01/24 03:15:41;;;;;;;3.27;2.73;;;;;20.90;98108.00;;;;2063037;28;20605;-66
2021/01/24 03:16:41;;;;;;;2.97;2.67;;;;;20.90;98114.00;;;;2071462;28;20279;-66
2021/01/24 03:17:41;;;;;;;3.60;2.80;;;;;20.90;98128.00;;;;2079557;28;20677;-66
2021/01/24 03:18:43;;;;;;;3.47;3.17;;;;;20.90;98127.00;;;;2070959;28;20857;-66
2021/01/24 03:19:44;;;;;;;2.80;2.60;;;;;20.90;98123.00;;;;2063374;28;20210;-66
2021/01/24 03:20:44;;;;;;;4.70;2.60;;;;;20.80;98127.00;;;;2049877;28;20710;-66
2021/01/24 03:21:44;;;;;;;2.77;2.57;;;;;20.90;98124.00;;;;2055242;28;20263;-66
2021/01/24 03:22:45;;;;;;;2.60;2.30;;;;;20.80;98128.00;;;;2071319;28;20541;-67
2021/01/24 03:23:45;;;;;;;2.60;2.40;;;;;20.80;98135.00;;;;2062660;28;20225;-66
2021/01/24 03:24:47;;;;;;;2.90;2.67;;;;;20.80;98132.00;;;;2063332;28;20222;-66
2021/01/24 03:25:47;;;;;;;3.00;2.80;;;;;20.80;98132.00;;;;2066056;28;20214;-66
2021/01/24 03:26:48;;;;;;;2.97;2.77;;;;;20.80;98130.00;;;;2055082;28;20219;-66
2021/01/24 03:27:48;;;;;;;2.87;2.63;;;;;20.80;98135.00;;;;2063151;28;20203;-66
2021/01/24 03:28:48;;;;;;;3.47;2.70;;;;;20.80;98132.00;;;;2060108;28;20257;-66
2021/01/24 03:29:49;;;;;;;3.50;2.90;;;;;20.80;98141.00;;;;2074229;28;20214;-67
2021/01/24 03:30:49;;;;;;;2.70;2.50;;;;;20.80;98139.00;;;;2087708;28;20220;-66
2021/01/24 03:31:49;;;;;;;3.00;2.80;;;;;20.80;98149.00;;;;2083203;28;20244;-66
2021/01/24 03:32:50;;;;;;;2.80;2.60;;;;;20.80;98133.00;;;;2088026;28;20247;-66
2021/01/24 03:33:50;;;;;;;3.27;2.63;;;;;20.80;98149.00;;;;2078447;28;20218;-66
2021/01/24 03:34:50;;;;;;;2.80;2.60;;;;;20.80;98150.00;;;;2071198;28;20236;-66
2021/01/24 03:35:51;;;;;;;3.07;2.87;;;;;20.80;98149.00;;;;2079323;28;20241;-66
2021/01/24 03:36:52;;;;;;;2.90;2.70;;;;;20.80;98146.00;;;;2086154;28;20205;-66
2021/01/24 03:37:53;;;;;;;3.25;2.95;;;;;20.80;98147.00;;;;2083633;28;20292;-66
2021/01/24 03:38:53;;;;;;;3.00;2.80;;;;;20.80;98149.00;;;;2088257;28;20220;-66
2021/01/24 03:39:54;;;;;;;2.73;2.53;;;;;20.80;98149.00;;;;2087832;28;20826;-66
2021/01/24 03:40:54;;;;;;;3.40;3.10;;;;;20.80;98152.00;;;;2087964;28;20236;-66
2021/01/24 03:41:54;;;;;;;3.27;3.07;;;;;20.80;98152.00;;;;2078830;28;20320;-66
2021/01/24 03:42:54;;;;;;;3.33;3.13;;;;;20.80;98155.00;;;;2079338;28;20279;-66
2021/01/24 03:43:55;;;;;;;2.93;2.73;;;;;20.80;98156.00;;;;2078791;28;20724;-66
2021/01/24 03:44:55;;;;;;;3.30;3.10;;;;;20.70;98157.00;;;;2087994;28;20869;-66
2021/01/24 03:45:55;;;;;;;3.10;2.90;;;;;20.70;98161.00;;;;2088107;28;20575;-66
2021/01/24 03:46:56;;;;;;;3.80;3.40;;;;;20.70;98159.00;;;;2087649;28;20633;-66
2021/01/24 03:47:56;;;;;;;3.03;2.83;;;;;20.70;98165.00;;;;2087366;28;20718;-66
2021/01/24 03:48:56;;;;;;;4.00;3.70;;;;;20.70;98160.00;;;;2079297;28;20246;-66
2021/01/24 03:49:57;;;;;;;3.23;3.03;;;;;20.70;98157.00;;;;2079405;28;20287;-66
2021/01/24 03:50:57;;;;;;;3.37;3.10;;;;;20.70;98166.00;;;;2088046;28;20221;-66
2021/01/24 03:51:57;;;;;;;5.10;3.03;;;;;20.70;98162.00;;;;2087999;28;20898;-66
2021/01/24 03:52:58;;;;;;;3.87;3.57;;;;;20.70;98157.00;;;;2088249;28;20210;-66
2021/01/24 03:53:58;;;;;;;3.90;3.50;;;;;20.70;98166.00;;;;2087408;28;20313;-66
2021/01/24 03:54:58;;;;;;;3.87;3.57;;;;;20.80;98167.00;;;;2087796;28;20264;-66
2021/01/24 03:55:59;;;;;;;3.60;3.40;;;;;20.70;98167.00;;;;2088016;28;20226;-66
2021/01/24 03:56:59;;;;;;;3.03;2.83;;;;;20.70;98164.00;;;;2087631;28;20240;-66
2021/01/24 03:57:59;;;;;;;3.30;3.10;;;;;20.70;98163.00;;;;2088162;28;20210;-66
2021/01/24 03:59:00;;;;;;;3.40;3.20;;;;;20.70;98165.00;;;;2088042;28;20709;-66
2021/01/24 04:00:01;;;;;;;3.27;2.97;;;;;20.70;98166.00;;;;2088158;28;20703;-66
2021/01/24 04:01:01;;;;;;;3.55;3.25;;;;;20.70;98172.00;;;;2088018;28;20217;-66
2021/01/24 04:02:01;;;;;;;3.67;3.40;;;;;20.70;98172.00;;;;2087769;28;20220;-66
2021/01/24 04:03:02;;;;;;;3.47;3.27;;;;;20.70;98182.00;;;;2087899;28;20209;-66
2021/01/24 04:04:02;;;;;;;3.73;3.43;;;;;20.70;98171.00;;;;2087118;28;20285;-66
2021/01/24 04:05:03;;;;;;;3.37;3.17;;;;;20.70;98176.00;;;;2087385;28;20910;-66
2021/01/24 04:06:04;;;;;;;3.70;3.50;;;;;20.70;98176.00;;;;2079112;28;20275;-66
2021/01/24 04:07:04;;;;;;;3.60;3.30;;;;;20.70;98174.00;;;;2079087;28;20206;-67
2021/01/24 04:08:04;;;;;;;3.57;3.37;;;;;20.70;98180.00;;;;2087968;28;20197;-66
2021/01/24 04:09:05;;;;;;;3.57;3.27;;;;;20.60;98184.00;;;;2088017;28;20261;-66
2021/01/24 04:10:05;;;;;;;3.00;2.80;;;;;20.60;98186.00;;;;2088010;28;20244;-67
2021/01/24 04:11:06;;;;;;;3.40;3.20;;;;;20.70;98188.00;;;;2087830;28;20205;-66
2021/01/24 04:12:06;;;;;;;3.10;2.90;;;;;20.60;98180.00;;;;2087776;28;20209;-66
2021/01/24 04:13:06;;;;;;;3.37;3.17;;;;;20.60;98185.00;;;;2087864;28;20205;-66
2021/01/24 04:14:07;;;;;;;3.33;3.13;;;;;20.60;98194.00;;;;2087318;28;20271;-66
2021/01/24 04:15:08;;;;;;;3.27;3.07;;;;;20.60;98196.00;;;;2087894;28;20221;-66
2021/01/24 04:16:08;;;;;;;3.50;3.20;;;;;20.60;98196.00;;;;2087896;28;20216;-66
2021/01/24 04:17:08;;;;;;;3.10;2.90;;;;;20.60;98190.00;;;;2087733;28;20209;-66
2021/01/24 04:18:09;;;;;;;2.73;2.63;;;;;20.60;98191.00;;;;2087486;28;20221;-66
2021/01/24 04:19:09;;;;;;;2.50;2.30;;;;;20.60;98194.00;;;;2087872;28;20294;-66
2021/01/24 04:20:10;;;;;;;3.30;3.07;;;;;20.60;98204.00;;;;2088091;28;20805;-66
2021/01/24 04:21:10;;;;;;;2.90;2.70;;;;;20.60;98206.00;;;;2087905;28;20603;-66
2021/01/24 04:22:11;;;;;;;2.70;2.50;;;;;20.60;98199.00;;;;2087688;28;20463;-66
2021/01/24 04:23:11;;;;;;;2.80;2.63;;;;;20.60;98202.00;;;;2087849;28;20266;-66
2021/01/24 04:24:11;;;;;;;2.70;2.50;;;;;20.60;98202.00;;;;2087330;28;20279;-66
2021/01/24 04:25:13;;;;;;;2.60;2.40;;;;;20.60;98206.00;;;;2087607;28;20211;-66
2021/01/24 04:26:13;;;;;;;2.53;2.42;;;;;20.60;98198.00;;;;2078967;28;20691;-66
2021/01/24 04:27:14;;;;;;;2.60;2.40;;;;;20.60;98203.00;;;;2070935;28;20230;-66
2021/01/24 04:28:14;;;;;;;2.87;2.67;;;;;20.60;98206.00;;;;2079001;28;20229;-67
2021/01/24 04:29:14;;;;;;;2.70;2.50;;;;;20.60;98212.00;;;;2078045;28;20589;-66
2021/01/24 04:30:15;;;;;;;2.57;2.37;;;;;20.60;98212.00;;;;2086838;28;20631;-66
2021/01/24 04:31:16;;;;;;;2.60;2.40;;;;;20.60;98202.00;;;;2087351;28;20240;-66
2021/01/24 04:32:16;;;;;;;2.23;2.13;;;;;20.60;98211.00;;;;2087755;28;20459;-66
2021/01/24 04:33:17;;;;;;;2.73;2.53;;;;;20.50;98208.00;;;;2079055;28;20263;-66
2021/01/24 04:34:17;;;;;;;2.17;2.07;;;;;20.50;98205.00;;;;2078037;28;20241;-66
2021/01/24 04:35:17;;;;;;;2.70;2.50;;;;;20.50;98214.00;;;;2087572;28;20228;-67
2021/01/24 04:36:18;;;;;;;2.70;2.50;;;;;20.60;98210.00;;;;2087220;28;20231;-66
2021/01/24 04:37:18;;;;;;;2.57;2.37;;;;;20.50;98209.00;;;;2087702;28;20664;-66
2021/01/24 04:38:18;;;;;;;2.40;2.00;;;;;20.50;98212.00;;;;2087642;28;21037;-66
2021/01/24 04:39:19;;;;;;;2.27;2.17;;;;;20.50;98223.00;;;;2087707;28;20259;-66
2021/01/24 04:40:19;;;;;;;1.90;1.80;;;;;20.50;98219.00;;;;2087704;28;20944;-66
2021/01/24 04:41:19;;;;;;;2.30;2.20;;;;;20.50;98224.00;;;;2087693;28;20765;-66
2021/01/24 04:42:20;;;;;;;2.40;2.30;;;;;20.50;98226.00;;;;2072632;28;20312;-66
2021/01/24 04:43:21;;;;;;;2.50;2.40;;;;;20.50;98218.00;;;;2078019;28;20227;-66
2021/01/24 04:44:22;;;;;;;2.00;1.90;;;;;20.50;98223.00;;;;2078202;28;20895;-66
2021/01/24 04:45:22;;;;;;;2.13;2.03;;;;;20.50;98220.00;;;;2078726;28;20945;-66
2021/01/24 04:46:22;;;;;;;2.00;1.90;;;;;20.50;98227.00;;;;2087179;28;21011;-66
2021/01/24 04:47:24;;;;;;;2.30;2.10;;;;;20.50;98229.00;;;;2087788;28;20228;-66
2021/01/24 04:48:24;;;;;;;1.85;1.75;;;;;20.50;98232.00;;;;2078886;28;20316;-66
2021/01/24 04:49:25;;;;;;;2.23;2.03;;;;;20.50;98194.00;;;;2070431;28;20318;-66
2021/01/24 04:50:26;;;;;;;2.23;2.03;;;;;20.50;98235.00;;;;2070605;28;20337;-66
2021/01/24 04:51:26;;;;;;;2.13;2.03;;;;;20.50;98228.00;;;;2070405;28;20253;-67
2021/01/24 04:52:26;;;;;;;1.77;1.67;;;;;20.50;98232.00;;;;2087372;28;20541;-66
2021/01/24 04:53:27;;;;;;;2.13;2.03;;;;;20.50;98236.00;;;;2078922;28;20228;-66
2021/01/24 04:54:27;;;;;;;1.70;1.60;;;;;20.50;98238.00;;;;2076223;28;20252;-66
2021/01/24 04:55:27;;;;;;;1.80;1.70;;;;;20.50;98232.00;;;;2078592;28;20221;-66
2021/01/24 04:56:28;;;;;;;1.60;1.50;;;;;20.50;98244.00;;;;2070284;28;20221;-66
2021/01/24 04:57:29;;;;;;;1.73;1.63;;;;;20.50;98242.00;;;;2070634;28;20700;-66
2021/01/24 04:58:30;;;;;;;1.70;1.60;;;;;20.50;98245.00;;;;2087534;28;20246;-66
2021/01/24 04:59:30;;;;;;;1.83;1.73;;;;;20.50;98245.00;;;;2078734;28;20463;-66
2021/01/24 05:00:30;;;;;;;1.60;1.50;;;;;20.50;98252.00;;;;2078752;28;20692;-66
2021/01/24 05:01:31;;;;;;;1.70;1.60;;;;;20.50;98245.00;;;;2087716;28;20229;-66
2021/01/24 05:02:32;;;;;;;1.60;1.50;;;;;20.40;98252.00;;;;2087541;28;20241;-66
2021/01/24 05:03:32;;;;;;;1.73;1.63;;;;;20.50;98253.00;;;;2078091;28;20457;-66
2021/01/24 05:04:32;;;;;;;1.40;1.30;;;;;20.40;98254.00;;;;2078402;28;20217;-66
2021/01/24 05:05:33;;;;;;;1.40;1.30;;;;;20.50;98252.00;;;;2078834;28;20214;-66
2021/01/24 05:06:33;;;;;;;1.60;1.50;;;;;20.50;98255.00;;;;2078826;28;20228;-66
2021/01/24 05:07:34;;;;;;;1.53;1.43;;;;;20.50;98254.00;;;;2087604;28;20220;-66